createdAt,value
2023-03-27T00:01:30.892Z,99.90
2023-03-27T00:04:00.459Z,99.90
2023-03-27T00:06:29.457Z,99.90
2023-03-27T00:08:58.244Z,99.90
2023-03-27T00:11:27.116Z,99.90
2023-03-27T00:13:55.884Z,99.90
2023-03-27T00:16:27.872Z,99.90
2023-03-27T00:18:57.742Z,99.90
2023-03-27T00:21:27.131Z,99.90
2023-03-27T00:23:56.649Z,99.90
2023-03-27T00:26:25.534Z,99.90
2023-03-27T00:28:54.872Z,99.90
2023-03-27T00:31:25.176Z,99.90
2023-03-27T00:33:53.916Z,99.90
2023-03-27T00:36:22.757Z,99.90
2023-03-27T00:38:53.105Z,99.90
2023-03-27T00:41:22.262Z,99.90
2023-03-27T00:43:54.421Z,99.90
2023-03-27T00:46:32.187Z,99.90
2023-03-27T00:49:04.306Z,99.90
2023-03-27T00:51:33.954Z,99.90
2023-03-27T00:54:02.926Z,99.90
2023-03-27T00:56:33.822Z,99.90
2023-03-27T00:59:06.235Z,99.90
2023-03-27T01:01:37.191Z,99.90
2023-03-27T01:04:07.933Z,99.90
2023-03-27T01:06:38.142Z,99.90
2023-03-27T01:09:09.320Z,99.90
2023-03-27T01:11:50.814Z,99.90
2023-03-27T01:14:29.463Z,99.90
2023-03-27T01:17:12.261Z,99.90
2023-03-27T01:20:14.934Z,99.90
2023-03-27T01:23:08.509Z,99.90
2023-03-27T01:26:01.303Z,99.90
2023-03-27T01:28:39.867Z,99.90
2023-03-27T01:31:26.711Z,99.90
2023-03-27T01:34:18.632Z,99.90
2023-03-27T01:37:21.851Z,99.90
2023-03-27T01:39:58.510Z,99.90
2023-03-27T01:42:33.585Z,99.90
2023-03-27T01:45:06.113Z,99.90
2023-03-27T01:47:43.288Z,99.90
2023-03-27T01:50:19.937Z,99.90
2023-03-27T01:52:53.964Z,99.90
2023-03-27T01:55:29.267Z,99.90
2023-03-27T01:58:03.306Z,99.90
2023-03-27T02:00:51.110Z,99.90
2023-03-27T02:03:27.754Z,99.90
2023-03-27T02:06:01.487Z,99.90
2023-03-27T02:08:36.260Z,99.90
2023-03-27T02:11:16.493Z,99.90
2023-03-27T02:13:49.061Z,99.90
2023-03-27T02:16:23.243Z,99.90
2023-03-27T02:18:56.972Z,99.90
2023-03-27T02:21:26.812Z,99.90
2023-03-27T02:23:56.744Z,99.90
2023-03-27T02:26:27.162Z,99.90
2023-03-27T02:29:19.198Z,99.90
2023-03-27T02:31:59.601Z,99.90
2023-03-27T02:34:49.299Z,99.90
2023-03-27T02:37:32.364Z,99.90
2023-03-27T02:40:32.001Z,99.90
2023-03-27T02:43:53.755Z,99.90
2023-03-27T02:46:36.949Z,99.90
2023-03-27T02:49:09.439Z,99.90
2023-03-27T02:51:43.905Z,99.90
2023-03-27T02:54:16.650Z,99.90
2023-03-27T02:56:49.283Z,99.90
2023-03-27T02:59:31.662Z,99.90
2023-03-27T03:02:01.483Z,99.90
2023-03-27T03:04:41.750Z,99.90
2023-03-27T03:07:24.911Z,99.90
2023-03-27T03:09:54.689Z,99.90
2023-03-27T03:12:24.069Z,99.90
2023-03-27T03:14:54.267Z,99.90
2023-03-27T03:17:23.158Z,99.90
2023-03-27T03:19:53.768Z,99.90
2023-03-27T03:22:22.548Z,99.90
2023-03-27T03:24:51.349Z,99.90
2023-03-27T03:27:22.470Z,99.90
2023-03-27T03:30:11.131Z,99.90
2023-03-27T03:32:53.022Z,99.90
2023-03-27T03:35:22.386Z,99.90
2023-03-27T03:37:51.608Z,99.90
2023-03-27T03:40:21.765Z,99.90
2023-03-27T03:42:54.239Z,99.90
2023-03-27T03:45:28.143Z,99.90
2023-03-27T03:47:57.102Z,99.90
2023-03-27T03:50:26.417Z,99.90
2023-03-27T03:52:55.226Z,99.90
2023-03-27T03:55:25.662Z,99.90
2023-03-27T03:57:54.560Z,99.90
2023-03-27T04:00:29.314Z,99.90
2023-03-27T04:02:59.664Z,99.90
2023-03-27T04:05:28.685Z,99.90
2023-03-27T04:08:00.471Z,99.90
2023-03-27T04:11:05.598Z,99.90
2023-03-27T04:13:54.677Z,99.90
2023-03-27T04:16:32.065Z,99.90
2023-03-27T04:19:07.143Z,99.90
2023-03-27T04:21:39.505Z,99.90
2023-03-27T04:24:08.982Z,99.90
2023-03-27T04:26:47.923Z,99.90
2023-03-27T04:29:30.268Z,99.90
2023-03-27T04:32:03.555Z,99.90
2023-03-27T04:34:41.728Z,99.90
2023-03-27T04:37:43.056Z,99.90
2023-03-27T04:40:19.053Z,99.90
2023-03-27T04:42:50.136Z,99.90
2023-03-27T04:45:22.556Z,99.90
2023-03-27T04:47:54.425Z,99.90
2023-03-27T04:50:23.794Z,99.90
2023-03-27T04:52:58.571Z,99.90
2023-03-27T04:55:30.478Z,99.90
2023-03-27T04:58:00.187Z,99.90
2023-03-27T05:00:29.290Z,99.90
2023-03-27T05:03:20.190Z,99.90
2023-03-27T05:06:03.784Z,99.90
2023-03-27T05:08:33.077Z,99.90
2023-03-27T05:11:02.703Z,99.90
2023-03-27T05:13:40.930Z,99.90
2023-03-27T05:16:11.462Z,99.90
2023-03-27T05:18:47.503Z,99.90
2023-03-27T05:21:16.805Z,99.90
2023-03-27T05:23:46.107Z,99.90
2023-03-27T05:26:14.892Z,99.90
2023-03-27T05:28:55.788Z,99.90
2023-03-27T05:31:25.050Z,99.90
2023-03-27T05:34:30.943Z,99.90
2023-03-27T05:37:06.288Z,99.90
2023-03-27T05:39:46.756Z,99.90
2023-03-27T05:42:16.463Z,99.90
2023-03-27T05:44:45.300Z,99.90
2023-03-27T05:47:15.306Z,99.90
2023-03-27T05:49:45.444Z,99.90
2023-03-27T05:52:16.017Z,99.90
2023-03-27T05:54:44.923Z,99.90
2023-03-27T05:57:13.753Z,99.90
2023-03-27T05:59:42.859Z,99.90
2023-03-27T06:02:23.347Z,99.90
2023-03-27T06:05:01.247Z,99.90
2023-03-27T06:07:36.594Z,99.90
2023-03-27T06:10:13.857Z,99.90
2023-03-27T06:13:00.316Z,99.90
2023-03-27T06:15:38.358Z,99.90
2023-03-27T06:18:29.756Z,99.90
2023-03-27T06:21:00.538Z,99.90
2023-03-27T06:23:29.812Z,99.90
2023-03-27T06:25:58.875Z,99.90
2023-03-27T06:28:29.843Z,99.90
2023-03-27T06:30:59.764Z,99.90
2023-03-27T06:33:33.184Z,99.90
2023-03-27T06:36:07.563Z,99.90
2023-03-27T06:38:38.113Z,99.90
2023-03-27T06:41:07.513Z,99.90
2023-03-27T06:44:08.991Z,99.90
2023-03-27T06:46:54.186Z,99.90
2023-03-27T06:49:31.813Z,99.90
2023-03-27T06:52:06.857Z,99.90
2023-03-27T06:54:36.840Z,99.90
2023-03-27T06:57:06.445Z,99.90
2023-03-27T06:59:49.443Z,99.90
2023-03-27T07:02:22.852Z,99.90
2023-03-27T07:05:10.768Z,99.90
2023-03-27T07:07:43.810Z,99.90
2023-03-27T07:10:13.583Z,99.90
2023-03-27T07:12:46.208Z,99.90
2023-03-27T07:15:18.387Z,99.90
2023-03-27T07:17:54.559Z,99.90
2023-03-27T07:20:23.758Z,99.90
2023-03-27T07:22:56.078Z,99.90
2023-03-27T07:25:45.129Z,99.90
2023-03-27T07:28:22.423Z,99.90
2023-03-27T07:30:51.345Z,99.90
2023-03-27T07:33:22.833Z,99.90
2023-03-27T07:35:52.282Z,99.90
2023-03-27T07:38:41.411Z,99.90
2023-03-27T07:41:22.838Z,99.90
2023-03-27T07:43:57.542Z,99.90
2023-03-27T07:46:28.199Z,99.90
2023-03-27T07:48:57.583Z,99.90
2023-03-27T07:51:28.236Z,99.90
2023-03-27T07:54:04.204Z,99.90
2023-03-27T07:56:37.786Z,99.90
2023-03-27T07:59:42.114Z,99.90
2023-03-27T08:02:17.520Z,99.90
2023-03-27T08:04:47.187Z,99.90
2023-03-27T08:07:17.632Z,99.90
2023-03-27T08:09:48.468Z,99.90
2023-03-27T08:12:19.679Z,99.90
2023-03-27T08:14:58.038Z,99.90
2023-03-27T08:17:30.516Z,99.90
2023-03-27T08:20:00.300Z,99.90
2023-03-27T08:22:29.182Z,99.90
2023-03-27T08:25:18.245Z,99.90
2023-03-27T08:27:47.134Z,99.90
2023-03-27T08:30:19.080Z,99.90
2023-03-27T08:32:48.216Z,99.90
2023-03-27T08:35:17.164Z,99.90
2023-03-27T08:37:47.173Z,99.90
2023-03-27T08:40:33.951Z,99.90
2023-03-27T08:43:26.299Z,99.90
2023-03-27T08:46:00.593Z,99.90
2023-03-27T08:48:34.986Z,99.90
2023-03-27T08:51:07.447Z,99.90
2023-03-27T08:53:44.571Z,99.90
2023-03-27T08:56:17.266Z,99.90
2023-03-27T08:58:47.904Z,99.90
2023-03-27T09:01:31.268Z,99.90
2023-03-27T09:04:11.414Z,99.90
2023-03-27T09:06:50.746Z,99.90
2023-03-27T09:09:31.132Z,99.90
2023-03-27T09:12:09.959Z,99.90
2023-03-27T09:14:45.141Z,99.90
2023-03-27T09:17:21.215Z,99.90
2023-03-27T09:19:56.716Z,99.90
2023-03-27T09:22:33.118Z,99.90
2023-03-27T09:25:23.345Z,99.90
2023-03-27T09:28:25.262Z,99.90
2023-03-27T09:31:17.965Z,99.90
2023-03-27T09:33:47.784Z,99.90
2023-03-27T09:36:17.566Z,99.90
2023-03-27T09:38:50.904Z,99.90
2023-03-27T09:41:30.749Z,99.90
2023-03-27T09:44:06.187Z,99.90
2023-03-27T09:46:43.777Z,99.90
2023-03-27T09:49:14.810Z,99.90
2023-03-27T09:51:50.182Z,99.90
2023-03-27T09:54:53.018Z,99.90
2023-03-27T09:57:33.826Z,99.90
2023-03-27T10:00:15.446Z,99.90
2023-03-27T10:02:44.223Z,99.90
2023-03-27T10:05:23.224Z,99.90
2023-03-27T10:07:56.533Z,99.90
2023-03-27T10:10:32.449Z,99.90
2023-03-27T10:13:23.097Z,99.90
2023-03-27T10:16:01.391Z,99.90
2023-03-27T10:18:44.229Z,99.90
2023-03-27T10:21:25.343Z,99.90
2023-03-27T10:24:01.951Z,99.90
2023-03-27T10:26:56.927Z,99.90
2023-03-27T10:29:29.113Z,99.90
2023-03-27T10:32:01.092Z,99.90
2023-03-27T10:34:43.457Z,99.90
2023-03-27T10:37:34.040Z,99.90
2023-03-27T10:40:26.498Z,99.90
2023-03-27T10:43:03.687Z,99.90
2023-03-27T10:45:35.987Z,99.90
2023-03-27T10:48:08.885Z,99.90
2023-03-27T10:50:47.393Z,99.90
2023-03-27T10:53:25.846Z,99.90
2023-03-27T10:56:10.789Z,99.90
2023-03-27T10:58:47.212Z,99.90
2023-03-27T11:01:22.004Z,99.90
2023-03-27T11:04:03.340Z,99.90
2023-03-27T11:06:42.478Z,99.90
2023-03-27T11:09:17.126Z,99.90
2023-03-27T11:12:02.428Z,99.90
2023-03-27T11:14:46.625Z,99.90
2023-03-27T11:17:25.053Z,99.90
2023-03-27T11:20:26.237Z,99.90
2023-03-27T11:23:29.933Z,99.90
2023-03-27T11:26:30.530Z,99.90
2023-03-27T11:29:05.969Z,99.90
2023-03-27T11:31:46.900Z,99.90
2023-03-27T11:34:32.442Z,97.90
2023-03-27T11:37:25.658Z,99.90
2023-03-27T11:39:59.631Z,99.90
2023-03-27T11:42:31.094Z,99.90
2023-03-27T11:45:04.518Z,99.90
2023-03-27T11:47:54.472Z,99.90
2023-03-27T11:50:38.788Z,99.90
2023-03-27T11:53:27.336Z,99.90
2023-03-27T11:56:19.651Z,99.90
2023-03-27T11:59:11.497Z,99.90
2023-03-27T12:01:51.830Z,99.90
2023-03-27T12:04:38.556Z,99.90
2023-03-27T12:07:48.152Z,99.90
2023-03-27T12:10:29.233Z,99.90
2023-03-27T12:13:41.245Z,99.90
2023-03-27T12:16:40.402Z,99.90
2023-03-27T12:19:39.029Z,99.90
2023-03-27T12:22:34.775Z,99.90
2023-03-27T12:25:41.409Z,99.90
2023-03-27T12:28:47.910Z,99.90
2023-03-27T12:31:42.214Z,99.90
2023-03-27T12:34:18.882Z,99.90
2023-03-27T12:36:48.848Z,99.90
2023-03-27T12:39:23.063Z,99.90
2023-03-27T12:41:52.250Z,99.90
2023-03-27T12:45:06.578Z,99.90
2023-03-27T12:47:35.520Z,99.90
2023-03-27T12:50:20.259Z,99.90
2023-03-27T12:52:53.248Z,99.90
2023-03-27T12:55:33.773Z,99.90
2023-03-27T12:58:04.847Z,99.90
2023-03-27T13:01:02.260Z,99.90
2023-03-27T13:03:59.927Z,99.90
2023-03-27T13:06:39.694Z,99.90
2023-03-27T13:09:37.362Z,99.90
2023-03-27T13:12:31.160Z,99.90
2023-03-27T13:15:23.871Z,99.90
2023-03-27T13:18:19.600Z,99.90
2023-03-27T13:20:57.670Z,99.90
2023-03-27T13:23:42.988Z,99.90
2023-03-27T13:26:41.545Z,99.90
2023-03-27T13:29:17.716Z,99.90
2023-03-27T13:32:01.779Z,99.90
2023-03-27T13:35:09.824Z,99.90
2023-03-27T13:37:58.290Z,99.90
2023-03-27T13:40:40.593Z,99.90
2023-03-27T13:43:26.609Z,99.90
2023-03-27T13:46:06.536Z,99.90
2023-03-27T13:49:04.777Z,99.90
2023-03-27T13:51:54.953Z,99.90
2023-03-27T13:54:48.851Z,99.90
2023-03-27T13:57:27.665Z,99.90
2023-03-27T14:00:25.415Z,99.90
2023-03-27T14:03:50.031Z,99.90
2023-03-27T14:06:51.960Z,99.90
2023-03-27T14:09:37.338Z,99.90
2023-03-27T14:12:18.386Z,99.90
2023-03-27T14:15:24.361Z,99.90
2023-03-27T14:18:53.152Z,99.90
2023-03-27T14:21:38.371Z,99.90
2023-03-27T14:24:20.511Z,99.90
2023-03-27T14:26:55.814Z,99.50
2023-03-27T14:29:24.873Z,99.90
2023-03-27T14:31:53.823Z,97.60
2023-03-27T14:34:47.086Z,91.20
2023-03-27T14:37:42.014Z,84.10
2023-03-27T14:40:33.073Z,89.70
2023-03-27T14:43:08.004Z,90.90
2023-03-27T14:45:40.795Z,91.70
2023-03-27T14:48:22.288Z,88.40
2023-03-27T14:50:55.370Z,87.60
2023-03-27T14:53:28.238Z,87.60
2023-03-27T14:56:29.261Z,82.10
2023-03-27T14:59:35.094Z,84.20
2023-03-27T15:02:15.875Z,80.20
2023-03-27T15:04:45.233Z,88.00
2023-03-27T15:07:19.696Z,87.70
2023-03-27T15:10:18.059Z,86.20
2023-03-27T15:13:05.658Z,86.10
2023-03-27T15:15:42.581Z,86.40
2023-03-27T15:18:15.463Z,90.20
2023-03-27T15:20:45.259Z,83.60
2023-03-27T15:23:20.349Z,77.70
2023-03-27T15:25:56.249Z,79.20
2023-03-27T15:28:30.759Z,85.10
2023-03-27T15:31:03.720Z,85.80
2023-03-27T15:33:36.610Z,85.70
2023-03-27T15:36:09.902Z,82.00
2023-03-27T15:38:39.236Z,82.80
2023-03-27T15:41:41.703Z,86.40
2023-03-27T15:44:19.268Z,85.00
2023-03-27T15:46:53.178Z,84.00
2023-03-27T15:49:25.004Z,89.50
2023-03-27T15:51:53.750Z,87.50
2023-03-27T15:54:28.909Z,90.20
2023-03-27T15:57:10.473Z,89.90
2023-03-27T15:59:52.353Z,87.00
2023-03-27T16:02:26.403Z,89.90
2023-03-27T16:04:57.458Z,89.50
2023-03-27T16:07:30.263Z,84.90
2023-03-27T16:10:02.272Z,88.10
2023-03-27T16:12:34.570Z,82.20
2023-03-27T16:15:08.299Z,81.80
2023-03-27T16:17:46.572Z,85.70
2023-03-27T16:20:34.640Z,82.80
2023-03-27T16:23:04.202Z,84.70
2023-03-27T16:25:33.310Z,84.20
2023-03-27T16:28:02.600Z,84.20
2023-03-27T16:30:35.305Z,84.40
2023-03-27T16:33:15.505Z,87.40
2023-03-27T16:35:45.483Z,87.30
2023-03-27T16:38:15.086Z,86.10
2023-03-27T16:40:44.183Z,88.40
2023-03-27T16:43:13.436Z,90.30
2023-03-27T16:45:42.557Z,90.10
2023-03-27T16:48:13.926Z,90.10
2023-03-27T16:50:42.877Z,90.30
2023-03-27T16:53:11.744Z,91.80
2023-03-27T16:55:40.618Z,90.20
2023-03-27T16:58:09.646Z,90.50
2023-03-27T17:00:38.582Z,90.70
2023-03-27T17:03:07.584Z,91.40
2023-03-27T17:05:37.763Z,91.60
2023-03-27T17:08:07.531Z,91.20
2023-03-27T17:10:36.502Z,92.30
2023-03-27T17:13:05.239Z,93.30
2023-03-27T17:15:37.219Z,93.50
2023-03-27T17:18:06.266Z,93.60
2023-03-27T17:20:35.891Z,94.30
2023-03-27T17:23:05.998Z,93.90
2023-03-27T17:25:34.795Z,93.90
2023-03-27T17:28:03.626Z,95.00
2023-03-27T17:30:41.005Z,95.60
2023-03-27T17:33:10.265Z,96.90
2023-03-27T17:35:40.414Z,97.20
2023-03-27T17:38:10.781Z,98.30
2023-03-27T17:40:42.813Z,96.40
2023-03-27T17:43:12.415Z,96.80
2023-03-27T17:45:42.678Z,96.60
2023-03-27T17:48:11.998Z,96.30
2023-03-27T17:50:41.099Z,97.80
2023-03-27T17:53:12.336Z,97.60
2023-03-27T17:55:44.490Z,98.50
2023-03-27T17:58:14.413Z,98.50
2023-03-27T18:00:43.447Z,99.50
2023-03-27T18:03:13.516Z,99.90
2023-03-27T18:05:43.809Z,99.90
2023-03-27T18:08:16.751Z,99.90
2023-03-27T18:10:48.397Z,99.90
2023-03-27T18:13:18.797Z,99.90
2023-03-27T18:15:48.212Z,99.90
2023-03-27T18:18:17.076Z,99.50
2023-03-27T18:20:51.915Z,99.90
2023-03-27T18:23:22.362Z,99.90
2023-03-27T18:25:51.213Z,99.90
2023-03-27T18:28:20.104Z,99.90
2023-03-27T18:30:58.092Z,99.90
2023-03-27T18:33:26.950Z,99.90
2023-03-27T18:35:57.292Z,99.90
2023-03-27T18:38:29.082Z,99.90
2023-03-27T18:40:59.787Z,99.90
2023-03-27T18:43:29.009Z,99.90
2023-03-27T18:45:59.215Z,99.90
2023-03-27T18:48:29.779Z,99.90
2023-03-27T18:50:59.877Z,99.90
2023-03-27T18:53:30.910Z,99.90
2023-03-27T18:56:00.843Z,99.90
2023-03-27T18:58:30.540Z,99.90
2023-03-27T19:00:59.980Z,99.90
2023-03-27T19:03:30.436Z,99.90
2023-03-27T19:06:02.425Z,99.90
2023-03-27T19:08:33.052Z,99.90
2023-03-27T19:11:02.008Z,99.90
2023-03-27T19:13:49.407Z,99.90
2023-03-27T19:16:32.422Z,99.90
2023-03-27T19:19:19.455Z,99.90
2023-03-27T19:22:08.998Z,99.90
2023-03-27T19:24:44.053Z,99.90
2023-03-27T19:27:23.128Z,99.90
2023-03-27T19:29:53.632Z,99.90
2023-03-27T19:32:24.158Z,99.90
2023-03-27T19:34:52.966Z,99.90
2023-03-27T19:37:21.780Z,99.90
2023-03-27T19:39:52.404Z,99.90
2023-03-27T19:42:21.284Z,99.90
2023-03-27T19:44:50.101Z,99.90
2023-03-27T19:47:19.227Z,99.90
2023-03-27T19:49:48.044Z,99.90
2023-03-27T19:52:49.398Z,99.90
2023-03-27T19:55:25.864Z,99.90
2023-03-27T19:57:55.044Z,99.90
2023-03-27T20:00:23.907Z,99.90
2023-03-27T20:02:53.866Z,99.90
2023-03-27T20:05:23.230Z,99.90
2023-03-27T20:07:52.040Z,99.90
2023-03-27T20:10:22.039Z,99.90
2023-03-27T20:12:52.206Z,99.90
2023-03-27T20:15:20.930Z,99.90
2023-03-27T20:17:49.756Z,99.90
2023-03-27T20:20:19.892Z,99.90
2023-03-27T20:25:20.379Z,99.90
2023-03-27T20:27:49.212Z,99.90
2023-03-27T20:30:19.583Z,99.90
2023-03-27T20:32:51.302Z,99.90
2023-03-27T20:35:24.426Z,99.90
2023-03-27T20:37:57.785Z,99.90
2023-03-27T20:40:28.401Z,99.90
2023-03-27T20:43:04.463Z,99.90
2023-03-27T20:45:34.646Z,99.90
2023-03-27T20:48:04.374Z,99.90
2023-03-27T20:50:35.364Z,99.90
2023-03-27T20:53:05.029Z,99.90
2023-03-27T20:55:37.585Z,99.90
2023-03-27T20:58:10.734Z,99.90
2023-03-27T21:00:43.740Z,99.90
2023-03-27T21:03:13.156Z,99.90
2023-03-27T21:05:42.251Z,99.90
2023-03-27T21:08:11.218Z,99.90
2023-03-27T21:10:39.986Z,99.90
2023-03-27T21:13:09.311Z,99.90
2023-03-27T21:15:38.077Z,99.90
2023-03-27T21:18:08.284Z,99.90
2023-03-27T21:20:37.056Z,99.90
2023-03-27T21:23:06.446Z,99.90
2023-03-27T21:25:36.018Z,99.90
2023-03-27T21:28:08.187Z,99.90
2023-03-27T21:30:47.066Z,99.90
2023-03-27T21:33:18.844Z,99.90
2023-03-27T21:35:49.022Z,99.90
2023-03-27T21:38:19.079Z,99.90
2023-03-27T21:40:48.439Z,99.90
2023-03-27T21:43:17.519Z,99.90
2023-03-27T21:45:46.803Z,99.90
2023-03-27T21:48:15.840Z,99.90
2023-03-27T21:50:48.266Z,99.90
2023-03-27T21:53:17.184Z,99.90
2023-03-27T21:55:47.547Z,99.90
2023-03-27T21:58:16.342Z,99.90
2023-03-27T22:00:46.480Z,99.90
2023-03-27T22:03:15.711Z,99.90
2023-03-27T22:05:51.574Z,99.90
2023-03-27T22:08:27.055Z,99.90
2023-03-27T22:10:59.632Z,99.90
2023-03-27T22:13:28.549Z,99.90
2023-03-27T22:15:57.994Z,99.90
2023-03-27T22:18:27.118Z,99.90
2023-03-27T22:20:57.247Z,99.90
2023-03-27T22:23:26.309Z,99.90
2023-03-27T22:25:55.443Z,99.90
2023-03-27T22:28:25.988Z,99.90
2023-03-27T22:30:54.876Z,99.90
2023-03-27T22:33:23.655Z,99.90
2023-03-27T22:35:52.452Z,99.90
2023-03-27T22:38:22.674Z,99.90
2023-03-27T22:40:51.483Z,99.90
2023-03-27T22:43:22.452Z,99.90
2023-03-27T22:45:52.491Z,99.90
2023-03-27T22:48:21.686Z,99.90
2023-03-27T22:50:55.619Z,99.90
2023-03-27T22:53:26.891Z,99.90
2023-03-27T22:55:57.982Z,99.90
2023-03-27T22:58:27.346Z,99.90
2023-03-27T23:00:56.522Z,99.90
2023-03-27T23:03:26.776Z,99.90
2023-03-27T23:05:55.854Z,99.90
2023-03-27T23:08:28.373Z,99.90
2023-03-27T23:10:58.648Z,99.90
2023-03-27T23:13:28.830Z,99.90
2023-03-27T23:15:57.737Z,99.90
2023-03-27T23:18:27.309Z,99.90
2023-03-27T23:20:57.203Z,99.90
2023-03-27T23:23:28.515Z,99.90
2023-03-27T23:25:59.058Z,99.90
2023-03-27T23:28:31.661Z,99.90
2023-03-27T23:31:01.990Z,99.90
2023-03-27T23:33:35.506Z,99.90
2023-03-27T23:36:05.900Z,99.90
2023-03-27T23:38:37.442Z,99.90
2023-03-27T23:41:08.318Z,99.90
2023-03-27T23:43:37.515Z,99.90
2023-03-27T23:46:08.697Z,99.90
2023-03-27T23:48:38.880Z,99.90
2023-03-27T23:51:08.664Z,99.90
2023-03-27T23:53:39.433Z,99.90
2023-03-27T23:56:09.087Z,99.90
2023-03-27T23:58:38.021Z,99.90
